Akeno Air Base, Japan

10:50 PM JST on September 01, 2014 (GMT +0900)
Nagoya / Chubu | Change Station
CLOSE
Current Station
Airport
Location: Nagoya / Chubu,
Elevation: 16 ft
Nearby Weather Stations

Elev 16 ft 34.86 °N, 136.81 °E | Updated 20 minutes ago

Mostly Cloudy
Mostly Cloudy
72 °F
Feels Like 72 °F
N
2
Wind Variable Wind from Variable

Today
High -- | Low -- °F
--% Chance of Precip.
Yesterday
High -- | Low -- °F
Precip. -- in
5:25 AM 6:20 PM
Waxing Crescent, 41% visible
Pressure 29.89 in
Visibility 6.2 miles
Clouds Few 700 ft
Scattered Clouds 900 ft
Mostly Cloudy 17000 ft
Dew Point 70 °F
Humidity 94%
Rainfall 0.00 in
Snow Depth Not available.
UV 0 out of 12
Pollen Not available.
Air Quality Not available.
Flu Activity Not available.
METAR RJGG 011330Z VRB02KT 9999 FEW007 SCT009 BKN170 22/21 Q1012 BECMG 36005KT

More Conditions Fewer Conditions

Pressure 29.89 in
Visibility 6.2 miles
Clouds Few 700 ft
Scattered Clouds 900 ft
Mostly Cloudy 17000 ft
Dew Point 70 °F
Humidity 94%
Rainfall 0.00 in
Snow Depth Not available.
UV 0 out of 12
Pollen Not available.
Air Quality Not available.
Flu Activity Not available.
METAR RJGG 011330Z VRB02KT 9999 FEW007 SCT009 BKN170 22/21 Q1012 BECMG 36005KT

More Conditions Fewer Conditions

10-Day Weather Forecast

Almanac

Astronomy

Sep. 01, 2014 Rise Set
Actual Time 5:25 AM JST 6:20 PM JST
Civil Twilight 5:00 AM JST 6:46 PM JST
Nautical Twilight 4:29 AM JST 7:16 PM JST
Astronomical Twilight 3:58 AM JST 7:47 PM JST
Moon 11:18 AM JST 10:08 PM JST
Length of Visible Light 13h 45m
Length of Day
12h 54m
Tomorrow will be 2m 4s shorter.
Waxing Crescent, 41% of the Moon is Illuminated
Today
Waxing Crescent
Sep 2
First Quarter
Sep 8
Full
Sep 15
Last Quarter
Sep 24
New

Yesterday's Extremes

Country Highs Country Lows

Community

WunderPhotos

Upload Photos

1,749,222 photos uploaded!

Nearby

Snow Depth

Not available.

Earthquake Activity

City Distance Mag. Time & Date
No recent earthquake activity has been reported nearby.
Minimum magnitude displayed is 2.5.

Coastal Water Temperatures

Place Temperature
No Stations Reporting

Nearby Weather Stations